sensor_id;sensor_type;location;lat;lon;timestamp;pressure;altitude;pressure_sealevel;temperature;humidity
33845;BME280;20145;43.118;25.694;2023-05-01T00:00:39;99378.91;;;11.80;85.95
33845;BME280;20145;43.118;25.694;2023-05-01T00:03:04;99382.47;;;11.73;84.76
33845;BME280;20145;43.118;25.694;2023-05-01T00:05:30;99379.28;;;11.58;86.02
33845;BME280;20145;43.118;25.694;2023-05-01T00:07:55;99393.09;;;11.56;85.64
33845;BME280;20145;43.118;25.694;2023-05-01T00:10:21;99398.44;;;11.44;83.89
33845;BME280;20145;43.118;25.694;2023-05-01T00:12:47;99400.38;;;11.31;84.07
33845;BME280;20145;43.118;25.694;2023-05-01T00:15:12;99400.50;;;11.23;85.54
33845;BME280;20145;43.118;25.694;2023-05-01T00:17:38;99390.41;;;11.06;84.86
33845;BME280;20145;43.118;25.694;2023-05-01T00:20:03;99406.00;;;11.00;86.54
33845;BME280;20145;43.118;25.694;2023-05-01T00:22:29;99402.66;;;10.92;86.67
33845;BME280;20145;43.118;25.694;2023-05-01T00:24:55;99390.84;;;10.76;87.08
33845;BME280;20145;43.118;25.694;2023-05-01T00:27:20;99396.84;;;10.75;86.27
33845;BME280;20145;43.118;25.694;2023-05-01T00:29:46;99393.56;;;10.63;87.64
33845;BME280;20145;43.118;25.694;2023-05-01T00:32:12;99407.19;;;10.75;87.33
33845;BME280;20145;43.118;25.694;2023-05-01T00:34:39;99396.97;;;10.67;87.79
33845;BME280;20145;43.118;25.694;2023-05-01T00:37:06;99406.41;;;10.66;87.50
33845;BME280;20145;43.118;25.694;2023-05-01T00:39:31;99406.47;;;10.63;87.75
33845;BME280;20145;43.118;25.694;2023-05-01T00:41:57;99401.38;;;10.57;88.07
33845;BME280;20145;43.118;25.694;2023-05-01T00:44:22;99414.28;;;10.59;87.92
33845;BME280;20145;43.118;25.694;2023-05-01T00:46:48;99410.81;;;10.58;88.98
33845;BME280;20145;43.118;25.694;2023-05-01T00:49:14;99410.84;;;10.55;88.04
33845;BME280;20145;43.118;25.694;2023-05-01T00:51:39;99415.16;;;10.56;89.41
33845;BME280;20145;43.118;25.694;2023-05-01T00:54:05;99407.47;;;10.50;88.89
33845;BME280;20145;43.118;25.694;2023-05-01T00:56:31;99415.22;;;10.50;87.94
33845;BME280;20145;43.118;25.694;2023-05-01T00:58:58;99415.31;;;10.42;88.84
33845;BME280;20145;43.118;25.694;2023-05-01T01:01:24;99416.22;;;10.38;88.52
33845;BME280;20145;43.118;25.694;2023-05-01T01:03:49;99409.44;;;10.30;88.74
33845;BME280;20145;43.118;25.694;2023-05-01T01:09:57;99424.91;;;10.30;88.09
33845;BME280;20145;43.118;25.694;2023-05-01T01:15:49;99425.06;;;10.11;88.51
33845;BME280;20145;43.118;25.694;2023-05-01T01:18:23;99401.22;;;9.89;88.52
33845;BME280;20145;43.118;25.694;2023-05-01T01:20:59;99424.34;;;9.97;89.18
33845;BME280;20145;43.118;25.694;2023-05-01T01:31:20;99433.06;;;9.80;90.14
33845;BME280;20145;43.118;25.694;2023-05-01T01:36:27;99434.81;;;9.77;91.20
33845;BME280;20145;43.118;25.694;2023-05-01T01:39:09;99428.81;;;9.76;91.23
33845;BME280;20145;43.118;25.694;2023-05-01T01:41:36;99433.03;;;9.83;92.52
33845;BME280;20145;43.118;25.694;2023-05-01T01:44:08;99426.06;;;9.98;92.79
33845;BME280;20145;43.118;25.694;2023-05-01T01:46:38;99431.94;;;10.12;93.63
33845;BME280;20145;43.118;25.694;2023-05-01T01:49:06;99438.69;;;10.22;93.82
33845;BME280;20145;43.118;25.694;2023-05-01T01:51:34;99431.81;;;10.24;94.17
33845;BME280;20145;43.118;25.694;2023-05-01T01:54:01;99442.03;;;10.37;94.10
33845;BME280;20145;43.118;25.694;2023-05-01T01:56:28;99441.03;;;10.48;94.11
33845;BME280;20145;43.118;25.694;2023-05-01T01:58:55;99439.19;;;10.58;96.83
33845;BME280;20145;43.118;25.694;2023-05-01T02:01:23;99439.78;;;10.82;100.00
33845;BME280;20145;43.118;25.694;2023-05-01T02:03:50;99431.91;;;10.91;100.00
33845;BME280;20145;43.118;25.694;2023-05-01T02:06:18;99438.63;;;11.06;100.00
33845;BME280;20145;43.118;25.694;2023-05-01T02:08:45;99440.25;;;11.11;100.00
33845;BME280;20145;43.118;25.694;2023-05-01T02:11:13;99447.91;;;11.18;100.00
33845;BME280;20145;43.118;25.694;2023-05-01T02:13:41;99458.97;;;11.27;100.00
33845;BME280;20145;43.118;25.694;2023-05-01T02:16:09;99460.63;;;11.31;100.00
33845;BME280;20145;43.118;25.694;2023-05-01T02:18:36;99460.53;;;11.37;100.00
33845;BME280;20145;43.118;25.694;2023-05-01T02:21:03;99457.16;;;11.34;99.61
33845;BME280;20145;43.118;25.694;2023-05-01T02:23:29;99459.78;;;11.31;100.00
33845;BME280;20145;43.118;25.694;2023-05-01T02:25:59;99464.03;;;11.36;100.00
33845;BME280;20145;43.118;25.694;2023-05-01T02:28:28;99465.75;;;11.34;99.43
33845;BME280;20145;43.118;25.694;2023-05-01T02:30:54;99470.09;;;11.32;99.90
33845;BME280;20145;43.118;25.694;2023-05-01T02:33:22;99473.50;;;11.34;100.00
33845;BME280;20145;43.118;25.694;2023-05-01T02:35:47;99473.56;;;11.31;100.00
33845;BME280;20145;43.118;25.694;2023-05-01T02:38:14;99475.31;;;11.29;99.24
33845;BME280;20145;43.118;25.694;2023-05-01T02:40:44;99470.13;;;11.28;98.63
33845;BME280;20145;43.118;25.694;2023-05-01T02:43:12;99472.78;;;11.25;100.00
33845;BME280;20145;43.118;25.694;2023-05-01T02:45:41;99478.88;;;11.19;98.44
33845;BME280;20145;43.118;25.694;2023-05-01T02:48:08;99475.44;;;11.19;98.13
33845;BME280;20145;43.118;25.694;2023-05-01T02:50:36;99485.81;;;11.14;98.51
33845;BME280;20145;43.118;25.694;2023-05-01T02:53:05;99490.19;;;11.12;98.24
33845;BME280;20145;43.118;25.694;2023-05-01T02:55:31;99497.09;;;11.08;98.51
33845;BME280;20145;43.118;25.694;2023-05-01T02:57:58;99498.00;;;11.06;98.34
33845;BME280;20145;43.118;25.694;2023-05-01T03:00:25;99498.81;;;11.08;99.27
33845;BME280;20145;43.118;25.694;2023-05-01T03:02:51;99497.16;;;11.04;99.60
33845;BME280;20145;43.118;25.694;2023-05-01T03:05:16;99510.06;;;11.04;99.20
33845;BME280;20145;43.118;25.694;2023-05-01T03:07:44;99512.75;;;10.94;98.33
33845;BME280;20145;43.118;25.694;2023-05-01T03:10:10;99507.69;;;10.87;98.93
33845;BME280;20145;43.118;25.694;2023-05-01T03:12:36;99506.09;;;10.78;98.62
33845;BME280;20145;43.118;25.694;2023-05-01T03:15:01;99492.44;;;10.65;97.97
33845;BME280;20145;43.118;25.694;2023-05-01T03:17:27;99507.03;;;10.66;97.78
33845;BME280;20145;43.118;25.694;2023-05-01T03:19:53;99506.28;;;10.60;98.02
33845;BME280;20145;43.118;25.694;2023-05-01T03:22:19;99512.31;;;10.56;97.37
33845;BME280;20145;43.118;25.694;2023-05-01T03:24:45;99508.06;;;10.53;97.68
33845;BME280;20145;43.118;25.694;2023-05-01T03:27:12;99517.50;;;10.53;98.30
33845;BME280;20145;43.118;25.694;2023-05-01T03:29:37;99515.84;;;10.47;98.22
33845;BME280;20145;43.118;25.694;2023-05-01T03:32:03;99516.72;;;10.44;97.33
33845;BME280;20145;43.118;25.694;2023-05-01T03:34:29;99521.09;;;10.36;96.08
33845;BME280;20145;43.118;25.694;2023-05-01T03:36:55;99525.44;;;10.33;96.05
33845;BME280;20145;43.118;25.694;2023-05-01T03:39:21;99528.06;;;10.28;96.38
33845;BME280;20145;43.118;25.694;2023-05-01T03:41:46;99531.53;;;10.21;95.27
33845;BME280;20145;43.118;25.694;2023-05-01T03:44:12;99531.56;;;10.18;95.28
33845;BME280;20145;43.118;25.694;2023-05-01T03:46:38;99534.19;;;10.15;97.03
33845;BME280;20145;43.118;25.694;2023-05-01T03:49:03;99535.94;;;10.10;97.29
33845;BME280;20145;43.118;25.694;2023-05-01T03:51:29;99542.78;;;10.12;97.29
33845;BME280;20145;43.118;25.694;2023-05-01T03:53:54;99560.00;;;10.12;97.99
33845;BME280;20145;43.118;25.694;2023-05-01T03:56:24;99556.53;;;10.11;97.66
33845;BME280;20145;43.118;25.694;2023-05-01T03:58:51;99566.84;;;10.13;98.53
33845;BME280;20145;43.118;25.694;2023-05-01T04:01:16;99577.16;;;10.14;98.88
33845;BME280;20145;43.118;25.694;2023-05-01T04:03:42;99582.28;;;10.16;98.60
33845;BME280;20145;43.118;25.694;2023-05-01T04:06:09;99580.56;;;10.16;99.08
33845;BME280;20145;43.118;25.694;2023-05-01T04:08:34;99579.66;;;10.22;98.85
33845;BME280;20145;43.118;25.694;2023-05-01T04:11:00;99589.09;;;10.24;99.46
33845;BME280;20145;43.118;25.694;2023-05-01T04:13:26;99593.41;;;10.25;100.00
33845;BME280;20145;43.118;25.694;2023-05-01T04:15:52;99589.09;;;10.29;100.00
33845;BME280;20145;43.118;25.694;2023-05-01T04:18:19;99585.66;;;10.24;100.00
33845;BME280;20145;43.118;25.694;2023-05-01T04:20:44;99596.75;;;10.38;100.00
33845;BME280;20145;43.118;25.694;2023-05-01T04:23:10;99607.84;;;10.46;100.00
33845;BME280;20145;43.118;25.694;2023-05-01T04:25:37;99599.22;;;10.54;100.00
33845;BME280;20145;43.118;25.694;2023-05-01T04:28:02;99600.81;;;10.65;99.53
33845;BME280;20145;43.118;25.694;2023-05-01T04:30:29;99607.66;;;10.71;99.64
33845;BME280;20145;43.118;25.694;2023-05-01T04:32:55;99611.97;;;10.69;99.27
33845;BME280;20145;43.118;25.694;2023-05-01T04:35:22;99605.06;;;10.73;98.12
33845;BME280;20145;43.118;25.694;2023-05-01T04:37:48;99613.53;;;10.85;98.59
33845;BME280;20145;43.118;25.694;2023-05-01T04:40:13;99605.66;;;10.98;98.50
33845;BME280;20145;43.118;25.694;2023-05-01T04:42:39;99606.28;;;11.20;97.92
33845;BME280;20145;43.118;25.694;2023-05-01T04:45:05;99604.31;;;11.40;97.14
33845;BME280;20145;43.118;25.694;2023-05-01T04:47:31;99596.22;;;11.66;96.59
33845;BME280;20145;43.118;25.694;2023-05-01T04:49:56;99598.25;;;12.08;96.86
33845;BME280;20145;43.118;25.694;2023-05-01T04:52:22;99609.34;;;12.68;95.62
33845;BME280;20145;43.118;25.694;2023-05-01T04:54:47;99615.50;;;13.09;91.96
33845;BME280;20145;43.118;25.694;2023-05-01T04:57:13;99624.72;;;13.24;92.27
33845;BME280;20145;43.118;25.694;2023-05-01T04:59:39;99624.94;;;13.58;89.92
33845;BME280;20145;43.118;25.694;2023-05-01T05:02:04;99634.66;;;13.89;88.97
33845;BME280;20145;43.118;25.694;2023-05-01T05:04:30;99635.22;;;14.02;88.19
33845;BME280;20145;43.118;25.694;2023-05-01T05:06:56;99641.75;;;14.20;86.23
33845;BME280;20145;43.118;25.694;2023-05-01T05:09:21;99652.03;;;14.23;87.02
33845;BME280;20145;43.118;25.694;2023-05-01T05:11:47;99646.78;;;14.26;87.19
33845;BME280;20145;43.118;25.694;2023-05-01T05:14:12;99654.41;;;14.34;88.89
33845;BME280;20145;43.118;25.694;2023-05-01T05:16:38;99632.66;;;14.38;89.47
33845;BME280;20145;43.118;25.694;2023-05-01T05:19:03;99647.34;;;14.76;89.93
33845;BME280;20145;43.118;25.694;2023-05-01T05:21:29;99637.22;;;15.00;86.69
33845;BME280;20145;43.118;25.694;2023-05-01T05:23:55;99645.97;;;15.28;82.63
33845;BME280;20145;43.118;25.694;2023-05-01T05:26:21;99644.53;;;15.49;83.87
33845;BME280;20145;43.118;25.694;2023-05-01T05:28:48;99654.91;;;15.80;84.19
33845;BME280;20145;43.118;25.694;2023-05-01T05:31:14;99652.31;;;16.10;81.52
33845;BME280;20145;43.118;25.694;2023-05-01T05:33:40;99647.41;;;16.27;80.38
33845;BME280;20145;43.118;25.694;2023-05-01T05:36:05;99650.81;;;16.56;80.68
33845;BME280;20145;43.118;25.694;2023-05-01T05:38:31;99657.88;;;16.81;78.43
33845;BME280;20145;43.118;25.694;2023-05-01T05:40:57;99659.28;;;16.91;76.07
33845;BME280;20145;43.118;25.694;2023-05-01T05:43:23;99658.22;;;16.97;75.51
33845;BME280;20145;43.118;25.694;2023-05-01T05:45:49;99666.13;;;17.19;74.88
33845;BME280;20145;43.118;25.694;2023-05-01T05:48:15;99675.72;;;17.43;73.22
33845;BME280;20145;43.118;25.694;2023-05-01T05:50:41;99663.13;;;17.54;72.49
33845;BME280;20145;43.118;25.694;2023-05-01T05:53:06;99685.75;;;17.77;72.53
33845;BME280;20145;43.118;25.694;2023-05-01T05:55:33;99689.13;;;17.81;70.78
33845;BME280;20145;43.118;25.694;2023-05-01T05:57:58;99691.22;;;17.71;71.25
33845;BME280;20145;43.118;25.694;2023-05-01T06:00:24;99693.25;;;17.63;71.20
33845;BME280;20145;43.118;25.694;2023-05-01T06:02:50;99695.47;;;17.74;70.42
33845;BME280;20145;43.118;25.694;2023-05-01T06:05:15;99700.53;;;17.53;71.56
33845;BME280;20145;43.118;25.694;2023-05-01T06:07:41;99703.78;;;17.60;72.76
33845;BME280;20145;43.118;25.694;2023-05-01T06:10:08;99702.66;;;17.67;72.27
33845;BME280;20145;43.118;25.694;2023-05-01T06:12:33;99697.31;;;17.70;70.91
33845;BME280;20145;43.118;25.694;2023-05-01T06:14:59;99703.50;;;17.68;71.22
33845;BME280;20145;43.118;25.694;2023-05-01T06:17:25;99717.06;;;17.77;70.27
33845;BME280;20145;43.118;25.694;2023-05-01T06:19:51;99715.19;;;17.82;70.25
33845;BME280;20145;43.118;25.694;2023-05-01T06:22:20;99720.06;;;17.67;69.68
33845;BME280;20145;43.118;25.694;2023-05-01T06:24:45;99714.44;;;17.54;70.27
33845;BME280;20145;43.118;25.694;2023-05-01T06:27:11;99721.66;;;17.71;70.26
33845;BME280;20145;43.118;25.694;2023-05-01T06:29:37;99721.09;;;17.88;70.68
33845;BME280;20145;43.118;25.694;2023-05-01T06:32:03;99728.00;;;17.89;69.95
33845;BME280;20145;43.118;25.694;2023-05-01T06:34:29;99730.34;;;17.96;69.71
33845;BME280;20145;43.118;25.694;2023-05-01T06:36:55;99727.91;;;18.15;69.04
33845;BME280;20145;43.118;25.694;2023-05-01T06:39:21;99727.84;;;17.93;68.81
33845;BME280;20145;43.118;25.694;2023-05-01T06:41:47;99725.63;;;17.82;69.88
33845;BME280;20145;43.118;25.694;2023-05-01T06:44:14;99731.25;;;17.70;69.41
33845;BME280;20145;43.118;25.694;2023-05-01T06:46:39;99729.88;;;17.85;69.09
33845;BME280;20145;43.118;25.694;2023-05-01T06:49:05;99731.53;;;17.88;69.59
33845;BME280;20145;43.118;25.694;2023-05-01T06:51:31;99742.34;;;18.00;69.08
33845;BME280;20145;43.118;25.694;2023-05-01T06:53:57;99731.31;;;17.94;68.60
33845;BME280;20145;43.118;25.694;2023-05-01T06:56:23;99741.22;;;18.08;68.55
33845;BME280;20145;43.118;25.694;2023-05-01T06:58:48;99741.56;;;18.22;68.10
33845;BME280;20145;43.118;25.694;2023-05-01T07:01:15;99746.53;;;18.28;66.44
33845;BME280;20145;43.118;25.694;2023-05-01T07:03:42;99748.88;;;18.36;65.13
33845;BME280;20145;43.118;25.694;2023-05-01T07:06:07;99742.56;;;18.18;66.43
33845;BME280;20145;43.118;25.694;2023-05-01T07:08:33;99752.22;;;17.92;65.64
33845;BME280;20145;43.118;25.694;2023-05-01T07:10:58;99758.03;;;18.00;64.67
33845;BME280;20145;43.118;25.694;2023-05-01T07:13:24;99753.94;;;18.17;65.78
33845;BME280;20145;43.118;25.694;2023-05-01T07:15:50;99766.78;;;18.45;64.31
33845;BME280;20145;43.118;25.694;2023-05-01T07:18:16;99764.06;;;18.70;63.61
33845;BME280;20145;43.118;25.694;2023-05-01T07:20:42;99764.66;;;18.78;62.99
33845;BME280;20145;43.118;25.694;2023-05-01T07:23:07;99760.72;;;18.66;63.77
33845;BME280;20145;43.118;25.694;2023-05-01T07:25:36;99761.31;;;18.73;63.01
33845;BME280;20145;43.118;25.694;2023-05-01T07:28:02;99764.81;;;18.52;62.33
33845;BME280;20145;43.118;25.694;2023-05-01T07:30:29;99766.00;;;18.65;62.75
33845;BME280;20145;43.118;25.694;2023-05-01T07:32:55;99772.44;;;18.56;63.58
33845;BME280;20145;43.118;25.694;2023-05-01T07:35:22;99774.25;;;18.78;62.68
33845;BME280;20145;43.118;25.694;2023-05-01T07:37:51;99781.66;;;19.10;61.47
33845;BME280;20145;43.118;25.694;2023-05-01T07:40:17;99780.81;;;19.10;61.10
33845;BME280;20145;43.118;25.694;2023-05-01T07:42:43;99785.00;;;19.14;62.04
33845;BME280;20145;43.118;25.694;2023-05-01T07:45:09;99771.28;;;19.29;61.52
33845;BME280;20145;43.118;25.694;2023-05-01T07:47:34;99764.66;;;19.41;61.33
33845;BME280;20145;43.118;25.694;2023-05-01T07:50:01;99773.03;;;19.49;61.20
33845;BME280;20145;43.118;25.694;2023-05-01T07:52:27;99773.00;;;19.71;62.38
33845;BME280;20145;43.118;25.694;2023-05-01T07:54:53;99772.13;;;19.91;62.42
33845;BME280;20145;43.118;25.694;2023-05-01T07:57:19;99763.47;;;19.89;59.70
33845;BME280;20145;43.118;25.694;2023-05-01T07:59:44;99775.56;;;20.12;60.84
33845;BME280;20145;43.118;25.694;2023-05-01T08:02:10;99784.03;;;20.17;58.33
33845;BME280;20145;43.118;25.694;2023-05-01T08:04:38;99782.06;;;20.22;57.30
33845;BME280;20145;43.118;25.694;2023-05-01T08:07:03;99782.25;;;20.75;56.79
33845;BME280;20145;43.118;25.694;2023-05-01T08:09:29;99778.28;;;20.85;56.30
33845;BME280;20145;43.118;25.694;2023-05-01T08:11:55;99786.84;;;20.50;55.20
33845;BME280;20145;43.118;25.694;2023-05-01T08:14:20;99777.06;;;19.97;57.67
33845;BME280;20145;43.118;25.694;2023-05-01T08:16:46;99785.03;;;19.75;58.45
33845;BME280;20145;43.118;25.694;2023-05-01T08:19:12;99764.47;;;19.46;59.11
33845;BME280;20145;43.118;25.694;2023-05-01T08:21:37;99783.69;;;19.45;60.01
33845;BME280;20145;43.118;25.694;2023-05-01T08:24:03;99784.53;;;19.45;59.52
33845;BME280;20145;43.118;25.694;2023-05-01T08:26:29;99771.06;;;19.34;61.73
33845;BME280;20145;43.118;25.694;2023-05-01T08:28:54;99787.16;;;19.45;61.08
33845;BME280;20145;43.118;25.694;2023-05-01T08:31:20;99787.44;;;19.59;62.88
33845;BME280;20145;43.118;25.694;2023-05-01T08:33:45;99787.91;;;19.69;63.12
33845;BME280;20145;43.118;25.694;2023-05-01T08:36:11;99783.06;;;19.60;60.84
33845;BME280;20145;43.118;25.694;2023-05-01T08:38:37;99788.53;;;19.33;59.41
33845;BME280;20145;43.118;25.694;2023-05-01T08:41:02;99783.66;;;19.46;59.84
33845;BME280;20145;43.118;25.694;2023-05-01T08:43:31;99778.84;;;19.56;60.55
33845;BME280;20145;43.118;25.694;2023-05-01T08:46:01;99790.53;;;19.69;61.76
33845;BME280;20145;43.118;25.694;2023-05-01T08:48:29;99787.78;;;19.52;59.55
33845;BME280;20145;43.118;25.694;2023-05-01T08:51:15;99784.41;;;19.28;56.92
33845;BME280;20145;43.118;25.694;2023-05-01T08:53:45;99783.84;;;19.42;59.41
33845;BME280;20145;43.118;25.694;2023-05-01T08:56:15;99787.97;;;19.47;56.65
33845;BME280;20145;43.118;25.694;2023-05-01T08:58:42;99783.84;;;19.42;57.68
33845;BME280;20145;43.118;25.694;2023-05-01T09:01:13;99781.00;;;19.68;57.23
33845;BME280;20145;43.118;25.694;2023-05-01T09:03:40;99777.31;;;19.72;55.88
33845;BME280;20145;43.118;25.694;2023-05-01T09:06:09;99773.75;;;19.94;57.21
33845;BME280;20145;43.118;25.694;2023-05-01T09:08:35;99770.84;;;20.00;58.34
33845;BME280;20145;43.118;25.694;2023-05-01T09:11:02;99783.41;;;20.12;55.73
33845;BME280;20145;43.118;25.694;2023-05-01T09:13:28;99777.66;;;20.04;53.97
33845;BME280;20145;43.118;25.694;2023-05-01T09:15:53;99770.66;;;20.04;51.77
33845;BME280;20145;43.118;25.694;2023-05-01T09:18:19;99780.84;;;20.11;51.33
33845;BME280;20145;43.118;25.694;2023-05-01T09:20:45;99777.66;;;20.23;52.26
33845;BME280;20145;43.118;25.694;2023-05-01T09:23:10;99774.41;;;20.18;51.48
33845;BME280;20145;43.118;25.694;2023-05-01T09:25:36;99771.16;;;20.32;50.81
33845;BME280;20145;43.118;25.694;2023-05-01T09:28:05;99771.22;;;20.30;49.30
33845;BME280;20145;43.118;25.694;2023-05-01T09:30:36;99782.91;;;20.42;48.94
33845;BME280;20145;43.118;25.694;2023-05-01T09:33:06;99773.41;;;20.39;47.98
33845;BME280;20145;43.118;25.694;2023-05-01T09:35:47;99772.53;;;20.59;48.78
33845;BME280;20145;43.118;25.694;2023-05-01T09:38:17;99768.75;;;20.65;49.18
33845;BME280;20145;43.118;25.694;2023-05-01T09:40:43;99763.69;;;20.79;50.31
33845;BME280;20145;43.118;25.694;2023-05-01T09:43:09;99766.47;;;20.76;49.66
33845;BME280;20145;43.118;25.694;2023-05-01T09:45:34;99774.50;;;20.73;49.77
33845;BME280;20145;43.118;25.694;2023-05-01T09:48:09;99762.38;;;20.70;50.37
33845;BME280;20145;43.118;25.694;2023-05-01T09:50:36;99765.50;;;20.60;48.23
33845;BME280;20145;43.118;25.694;2023-05-01T09:53:04;99760.03;;;20.45;49.08
33845;BME280;20145;43.118;25.694;2023-05-01T09:55:31;99767.97;;;20.44;49.87
33845;BME280;20145;43.118;25.694;2023-05-01T09:57:57;99765.00;;;20.33;51.02
33845;BME280;20145;43.118;25.694;2023-05-01T10:00:24;99762.03;;;20.40;50.07
33845;BME280;20145;43.118;25.694;2023-05-01T10:02:50;99760.72;;;20.49;49.41
33845;BME280;20145;43.118;25.694;2023-05-01T10:05:17;99762.16;;;20.56;50.59
33845;BME280;20145;43.118;25.694;2023-05-01T10:07:57;99767.03;;;20.64;49.03
33845;BME280;20145;43.118;25.694;2023-05-01T10:10:23;99755.81;;;20.62;49.67
33845;BME280;20145;43.118;25.694;2023-05-01T10:12:49;99757.72;;;20.76;49.80
33845;BME280;20145;43.118;25.694;2023-05-01T10:15:17;99756.16;;;20.90;51.33
33845;BME280;20145;43.118;25.694;2023-05-01T10:17:43;99760.47;;;20.91;48.68
33845;BME280;20145;43.118;25.694;2023-05-01T10:20:12;99753.69;;;20.87;47.04
33845;BME280;20145;43.118;25.694;2023-05-01T10:22:38;99752.91;;;21.03;48.15
33845;BME280;20145;43.118;25.694;2023-05-01T10:25:11;99749.38;;;21.04;46.63
33845;BME280;20145;43.118;25.694;2023-05-01T10:27:38;99748.50;;;21.03;47.99
33845;BME280;20145;43.118;25.694;2023-05-01T10:30:05;99741.56;;;20.85;47.29
33845;BME280;20145;43.118;25.694;2023-05-01T10:32:32;99751.53;;;20.96;47.15
33845;BME280;20145;43.118;25.694;2023-05-01T10:35:08;99752.47;;;21.12;44.79
33845;BME280;20145;43.118;25.694;2023-05-01T10:37:48;99746.22;;;21.14;44.11
33845;BME280;20145;43.118;25.694;2023-05-01T10:45:47;99749.06;;;21.45;44.95
33845;BME280;20145;43.118;25.694;2023-05-01T10:53:40;99742.44;;;21.55;44.12
33845;BME280;20145;43.118;25.694;2023-05-01T10:59:01;99747.69;;;21.55;44.23
33845;BME280;20145;43.118;25.694;2023-05-01T11:01:36;99740.03;;;21.50;45.34
33845;BME280;20145;43.118;25.694;2023-05-01T11:04:50;99746.16;;;21.51;45.14
33845;BME280;20145;43.118;25.694;2023-05-01T11:09:51;99740.09;;;21.66;43.46
33845;BME280;20145;43.118;25.694;2023-05-01T11:15:11;99742.38;;;21.56;42.73
33845;BME280;20145;43.118;25.694;2023-05-01T11:20:12;99734.66;;;21.87;43.10
33845;BME280;20145;43.118;25.694;2023-05-01T11:22:57;99738.84;;;22.22;44.46
33845;BME280;20145;43.118;25.694;2023-05-01T11:25:25;99749.47;;;22.21;41.73
33845;BME280;20145;43.118;25.694;2023-05-01T11:27:59;99742.34;;;22.23;39.96
33845;BME280;20145;43.118;25.694;2023-05-01T11:30:35;99753.47;;;22.11;39.27
33845;BME280;20145;43.118;25.694;2023-05-01T11:33:01;99750.25;;;22.05;38.95
33845;BME280;20145;43.118;25.694;2023-05-01T11:35:28;99738.00;;;22.22;38.65
33845;BME280;20145;43.118;25.694;2023-05-01T11:37:55;99741.91;;;22.31;38.46
33845;BME280;20145;43.118;25.694;2023-05-01T11:40:28;99735.03;;;22.60;39.48
33845;BME280;20145;43.118;25.694;2023-05-01T11:45:29;99726.59;;;23.01;38.47
33845;BME280;20145;43.118;25.694;2023-05-01T11:47:55;99721.31;;;23.31;37.14
33845;BME280;20145;43.118;25.694;2023-05-01T11:50:21;99725.22;;;23.24;38.03
33845;BME280;20145;43.118;25.694;2023-05-01T11:52:48;99721.41;;;22.99;36.78
33845;BME280;20145;43.118;25.694;2023-05-01T11:55:15;99723.38;;;22.64;36.41
33845;BME280;20145;43.118;25.694;2023-05-01T11:57:51;99726.81;;;22.18;36.59
33845;BME280;20145;43.118;25.694;2023-05-01T12:00:27;99725.47;;;22.27;36.67
33845;BME280;20145;43.118;25.694;2023-05-01T12:02:59;99719.47;;;22.08;37.22
33845;BME280;20145;43.118;25.694;2023-05-01T12:05:26;99725.31;;;21.97;36.77
33845;BME280;20145;43.118;25.694;2023-05-01T12:08:09;99719.16;;;21.98;36.20
33845;BME280;20145;43.118;25.694;2023-05-01T12:10:36;99713.03;;;22.13;37.02
33845;BME280;20145;43.118;25.694;2023-05-01T12:13:03;99706.22;;;22.26;36.23
33845;BME280;20145;43.118;25.694;2023-05-01T12:15:30;99704.34;;;22.29;36.64
33845;BME280;20145;43.118;25.694;2023-05-01T12:17:56;99705.53;;;22.23;38.25
33845;BME280;20145;43.118;25.694;2023-05-01T12:20:45;99714.78;;;22.46;37.61
33845;BME280;20145;43.118;25.694;2023-05-01T12:23:12;99710.53;;;22.43;36.72
33845;BME280;20145;43.118;25.694;2023-05-01T12:25:40;99714.69;;;22.47;35.72
33845;BME280;20145;43.118;25.694;2023-05-01T12:28:09;99708.06;;;22.40;34.68
33845;BME280;20145;43.118;25.694;2023-05-01T12:30:36;99701.28;;;22.36;35.62
33845;BME280;20145;43.118;25.694;2023-05-01T12:33:15;99703.66;;;22.41;35.47
33845;BME280;20145;43.118;25.694;2023-05-01T12:35:42;99685.59;;;22.51;36.16
33845;BME280;20145;43.118;25.694;2023-05-01T12:38:18;99702.69;;;22.58;36.57
33845;BME280;20145;43.118;25.694;2023-05-01T12:40:53;99706.28;;;22.41;36.36
33845;BME280;20145;43.118;25.694;2023-05-01T12:43:31;99705.28;;;22.43;36.13
33845;BME280;20145;43.118;25.694;2023-05-01T12:45:56;99704.69;;;22.22;35.26
33845;BME280;20145;43.118;25.694;2023-05-01T12:48:22;99707.78;;;21.97;35.83
33845;BME280;20145;43.118;25.694;2023-05-01T12:50:48;99692.50;;;21.88;34.98
33845;BME280;20145;43.118;25.694;2023-05-01T12:53:22;99712.53;;;22.07;36.26
33845;BME280;20145;43.118;25.694;2023-05-01T12:55:50;99699.06;;;22.13;35.57
33845;BME280;20145;43.118;25.694;2023-05-01T12:58:16;99704.78;;;22.21;34.72
33845;BME280;20145;43.118;25.694;2023-05-01T13:00:55;99706.88;;;22.14;35.49
33845;BME280;20145;43.118;25.694;2023-05-01T13:03:25;99702.66;;;22.27;35.10
33845;BME280;20145;43.118;25.694;2023-05-01T13:06:01;99709.78;;;22.25;35.08
33845;BME280;20145;43.118;25.694;2023-05-01T13:08:34;99699.16;;;22.27;34.94
33845;BME280;20145;43.118;25.694;2023-05-01T13:11:09;99700.53;;;22.34;35.35
33845;BME280;20145;43.118;25.694;2023-05-01T13:13:38;99690.75;;;22.36;35.96
33845;BME280;20145;43.118;25.694;2023-05-01T13:16:07;99702.47;;;22.31;35.56
33845;BME280;20145;43.118;25.694;2023-05-01T13:18:49;99701.03;;;22.09;35.03
33845;BME280;20145;43.118;25.694;2023-05-01T13:21:19;99703.88;;;22.04;35.97
33845;BME280;20145;43.118;25.694;2023-05-01T13:23:54;99701.09;;;22.08;35.98
33845;BME280;20145;43.118;25.694;2023-05-01T13:26:30;99696.19;;;22.01;34.47
33845;BME280;20145;43.118;25.694;2023-05-01T13:29:02;99689.22;;;22.00;35.32
33845;BME280;20145;43.118;25.694;2023-05-01T13:31:28;99697.72;;;22.21;35.42
33845;BME280;20145;43.118;25.694;2023-05-01T13:33:57;99687.38;;;22.18;34.57